Terminal Aerodrome Forecast
Issued by NWS

Home | Current Version | Previous Version | Text Only | Print | Product List | Glossary On
Versions: 1 2 3 4 5 6 7 8 9 10 11 12 13 14 15 16
517
FTUS42 KMLB 231120
TAFISM
TAF
KISM 231120Z 2312/2412 13003KT P6SM FEW020 SCT300
     FM231400 15008KT P6SM SCT025 SCT300
     FM231800 12010KT P6SM SCT050
     FM240000 12007KT P6SM SCT060 SCT090 SCT250=

USA.gov is the U.S. government's official web portal to all federal, state and local government web resources and services.